Terminal Aerodrome Forecast
Issued by NWS Sioux Falls, SD

Home | Current Version | Previous Version | Graphics & Text | Print | Product List | Glossary On
Versions: 1 2 3 4 5 6 7 8 9 10 11 12 13 14 15 16 17 18 19 20 21 22 23 24 25 26 27 28 29 30 31 32 33 34 35 36 37 38
000
FTUS43 KFSD 210522
TAFSUX
TAF
KSUX 210522Z 2106/2206 12006KT P6SM SCT017
     FM211000 14010KT P6SM SCT150
     FM211600 17013G19KT P6SM BKN150
     FM212200 17008KT P6SM BKN120
     FM220200 17008KT P6SM SCT008 BKN012=

USA.gov is the U.S. government's official web portal to all federal, state and local government web resources and services.